Frederick, OK (73542)

1:22 AM CDT on August 28, 2015 (GMT -0500)
Frederick Municipal | | Change Station
CLOSE
Current Station
Airport
Location: Frederick,
Elevation: 1253 ft
Nearby Weather Stations

Elev 1253 ft 34.35 °N, 98.98 °W | Updated 29 minutes ago

Partly Cloudy
Partly Cloudy
81 °F
Feels Like 82 °F
N
9
Wind Variable Wind from SSE

Today
High -- | Low -- °F
--% Chance of Precip.
Yesterday
High -- | Low -- °F
Precip. -- in
7:06 AM 8:07 PM
Waxing Gibbous, 97% visible
Pressure 29.87 in
Visibility 10.0 miles
Clouds Clear
Heat Index 82 °F
Dew Point 63 °F
Humidity 54%
Rainfall 0.00 in
Snow Depth Not available.
UV 0 out of 12
Pollen 9.10 out of 12
Air Quality Not available.
Flu Activity Not available.
METAR KFDR 280553Z AUTO 15008KT 10SM CLR 27/17 A2993 RMK AO2 SLP115 T02720172 10350 20267 403780222 50002 $
Pressure 29.87 in
Visibility 10.0 miles
Clouds Clear
Heat Index 82 °F
Dew Point 63 °F
Humidity 54%
Rainfall 0.00 in
Snow Depth Not available.
UV 0 out of 12
Pollen 9.10 out of 12
Air Quality Not available.
Flu Activity Not available.
METAR KFDR 280553Z AUTO 15008KT 10SM CLR 27/17 A2993 RMK AO2 SLP115 T02720172 10350 20267 403780222 50002 $

10-Day Weather Forecast

×

Almanac

Astronomy

Aug. 28, 2015 Rise Set
Actual Time
Civil Twilight
Nautical Twilight
Astronomical Twilight
Moon
Length of Visible Light
Length of Day
Tomorrow will be .
, % of the Moon is Illuminated

Today's Extremes

State Highs State Lows

Community

WunderPhotos

Upload Photos

1,850,341 photos uploaded!

WunderBlogs® & News

Nearby

Air Quality

  Air Quality AQ Index Pollutant
Not available.

Snow Depth

Station Depth Elevation

Earthquake Activity

City Distance Mag. Time & Date
Minimum magnitude displayed is 2.5.

Coastal Water Temperatures

Place Temperature

Stations

Nearby Weather Stations

Station Location Temp. Windchill Dew Point Humidity Wind Precip. Elev Updated Type